sensor_id;sensor_type;location;lat;lon;timestamp;pressure;altitude;pressure_sealevel;temperature;humidity
58757;BME280;44527;47.460;19.016;2023-10-09T00:00:34;101311.44;;;10.40;58.11
58757;BME280;44527;47.460;19.016;2023-10-09T00:03:44;101319.34;;;10.57;57.30
58757;BME280;44527;47.460;19.016;2023-10-09T00:06:49;101319.72;;;10.50;58.46
58757;BME280;44527;47.460;19.016;2023-10-09T00:09:58;101322.41;;;10.31;56.91
58757;BME280;44527;47.460;19.016;2023-10-09T00:13:06;101315.00;;;10.39;58.01
58757;BME280;44527;47.460;19.016;2023-10-09T00:16:19;101301.25;;;10.51;58.48
58757;BME280;44527;47.460;19.016;2023-10-09T00:19:37;101304.56;;;10.38;59.24
58757;BME280;44527;47.460;19.016;2023-10-09T00:22:44;101297.16;;;10.28;59.16
58757;BME280;44527;47.460;19.016;2023-10-09T00:25:53;101303.97;;;10.32;58.45
58757;BME280;44527;47.460;19.016;2023-10-09T00:29:13;101302.97;;;10.35;57.95
58757;BME280;44527;47.460;19.016;2023-10-09T00:32:26;101302.56;;;10.43;59.02
58757;BME280;44527;47.460;19.016;2023-10-09T00:35:30;101295.78;;;10.39;58.12
58757;BME280;44527;47.460;19.016;2023-10-09T00:38:43;101292.53;;;10.51;58.85
58757;BME280;44527;47.460;19.016;2023-10-09T00:42:02;101291.44;;;10.55;58.93
58757;BME280;44527;47.460;19.016;2023-10-09T00:45:11;101284.50;;;10.37;60.36
58757;BME280;44527;47.460;19.016;2023-10-09T00:48:21;101281.13;;;10.52;59.57
58757;BME280;44527;47.460;19.016;2023-10-09T00:51:34;101283.19;;;10.45;59.13
58757;BME280;44527;47.460;19.016;2023-10-09T00:54:40;101282.56;;;10.40;60.75
58757;BME280;44527;47.460;19.016;2023-10-09T00:57:50;101287.75;;;10.42;61.05
58757;BME280;44527;47.460;19.016;2023-10-09T01:01:06;101291.22;;;10.42;60.26
58757;BME280;44527;47.460;19.016;2023-10-09T01:04:20;101285.88;;;10.44;59.30
58757;BME280;44527;47.460;19.016;2023-10-09T01:07:25;101288.06;;;10.35;59.82
58757;BME280;44527;47.460;19.016;2023-10-09T01:10:44;101281.41;;;10.28;61.31
58757;BME280;44527;47.460;19.016;2023-10-09T01:13:55;101294.37;;;10.31;60.29
58757;BME280;44527;47.460;19.016;2023-10-09T01:17:19;101293.69;;;10.45;59.48
58757;BME280;44527;47.460;19.016;2023-10-09T01:20:41;101296.25;;;10.47;59.43
58757;BME280;44527;47.460;19.016;2023-10-09T01:23:52;101291.91;;;10.46;59.51
58757;BME280;44527;47.460;19.016;2023-10-09T01:27:19;101287.13;;;10.37;59.53
58757;BME280;44527;47.460;19.016;2023-10-09T01:30:30;101295.84;;;10.54;59.87
58757;BME280;44527;47.460;19.016;2023-10-09T01:33:38;101293.47;;;10.50;59.55
58757;BME280;44527;47.460;19.016;2023-10-09T01:36:43;101294.94;;;10.38;59.43
58757;BME280;44527;47.460;19.016;2023-10-09T01:39:55;101293.69;;;10.45;59.56
58757;BME280;44527;47.460;19.016;2023-10-09T01:43:06;101290.91;;;10.48;59.27
58757;BME280;44527;47.460;19.016;2023-10-09T01:46:14;101286.50;;;10.49;58.77
58757;BME280;44527;47.460;19.016;2023-10-09T01:49:24;101295.22;;;10.49;59.35
58757;BME280;44527;47.460;19.016;2023-10-09T01:52:50;101290.22;;;10.45;60.03
58757;BME280;44527;47.460;19.016;2023-10-09T01:55:56;101297.09;;;10.47;59.24
58757;BME280;44527;47.460;19.016;2023-10-09T01:59:02;101291.69;;;10.50;58.15
58757;BME280;44527;47.460;19.016;2023-10-09T02:02:10;101308.94;;;10.56;59.09
58757;BME280;44527;47.460;19.016;2023-10-09T02:05:31;101302.78;;;10.55;58.12
58757;BME280;44527;47.460;19.016;2023-10-09T02:08:39;101313.09;;;10.60;57.91
58757;BME280;44527;47.460;19.016;2023-10-09T02:11:55;101318.09;;;10.65;58.25
58757;BME280;44527;47.460;19.016;2023-10-09T02:14:58;101316.06;;;10.52;58.87
58757;BME280;44527;47.460;19.016;2023-10-09T02:18:16;101303.09;;;10.49;58.89
58757;BME280;44527;47.460;19.016;2023-10-09T02:21:30;101298.63;;;10.51;58.57
58757;BME280;44527;47.460;19.016;2023-10-09T02:24:44;101297.84;;;10.49;57.05
58757;BME280;44527;47.460;19.016;2023-10-09T02:27:51;101293.84;;;10.60;57.23
58757;BME280;44527;47.460;19.016;2023-10-09T02:31:01;101281.94;;;10.52;56.88
58757;BME280;44527;47.460;19.016;2023-10-09T02:34:20;101282.97;;;10.50;56.70
58757;BME280;44527;47.460;19.016;2023-10-09T02:37:31;101265.88;;;10.58;57.69
58757;BME280;44527;47.460;19.016;2023-10-09T02:40:34;101282.09;;;10.67;57.73
58757;BME280;44527;47.460;19.016;2023-10-09T02:44:02;101294.22;;;10.69;61.25
58757;BME280;44527;47.460;19.016;2023-10-09T02:47:16;101288.34;;;10.64;62.27
58757;BME280;44527;47.460;19.016;2023-10-09T02:50:37;101258.47;;;10.67;64.16
58757;BME280;44527;47.460;19.016;2023-10-09T02:53:45;101259.94;;;10.55;63.50
58757;BME280;44527;47.460;19.016;2023-10-09T02:56:56;101269.28;;;10.43;64.23
58757;BME280;44527;47.460;19.016;2023-10-09T03:00:11;101258.75;;;10.45;65.36
58757;BME280;44527;47.460;19.016;2023-10-09T03:03:24;101245.84;;;10.40;62.08
58757;BME280;44527;47.460;19.016;2023-10-09T03:06:30;101241.44;;;10.41;62.02
58757;BME280;44527;47.460;19.016;2023-10-09T03:09:38;101236.59;;;10.50;62.40
58757;BME280;44527;47.460;19.016;2023-10-09T03:12:44;101242.69;;;10.51;61.96
58757;BME280;44527;47.460;19.016;2023-10-09T03:15:51;101239.91;;;10.54;62.33
58757;BME280;44527;47.460;19.016;2023-10-09T03:18:55;101242.91;;;10.46;62.80
58757;BME280;44527;47.460;19.016;2023-10-09T03:22:01;101251.22;;;10.54;63.06
58757;BME280;44527;47.460;19.016;2023-10-09T03:25:07;101244.22;;;10.38;63.03
58757;BME280;44527;47.460;19.016;2023-10-09T03:28:16;101238.53;;;10.47;62.91
58757;BME280;44527;47.460;19.016;2023-10-09T03:31:20;101243.06;;;10.43;62.91
58757;BME280;44527;47.460;19.016;2023-10-09T03:34:27;101241.28;;;10.44;62.20
58757;BME280;44527;47.460;19.016;2023-10-09T03:37:32;101244.16;;;10.39;62.64
58757;BME280;44527;47.460;19.016;2023-10-09T03:40:44;101245.53;;;10.46;61.52
58757;BME280;44527;47.460;19.016;2023-10-09T03:43:50;101248.72;;;10.53;61.24
58757;BME280;44527;47.460;19.016;2023-10-09T03:46:55;101252.34;;;10.50;61.06
58757;BME280;44527;47.460;19.016;2023-10-09T03:49:58;101256.00;;;10.64;60.42
58757;BME280;44527;47.460;19.016;2023-10-09T03:53:10;101252.59;;;10.62;62.17
58757;BME280;44527;47.460;19.016;2023-10-09T03:56:17;101236.31;;;10.55;61.58
58757;BME280;44527;47.460;19.016;2023-10-09T03:59:22;101235.91;;;10.47;62.03
58757;BME280;44527;47.460;19.016;2023-10-09T04:02:24;101243.19;;;10.57;61.43
58757;BME280;44527;47.460;19.016;2023-10-09T04:05:28;101239.22;;;10.50;62.21
58757;BME280;44527;47.460;19.016;2023-10-09T04:08:30;101235.44;;;10.39;62.94
58757;BME280;44527;47.460;19.016;2023-10-09T04:11:35;101233.72;;;10.38;63.02
58757;BME280;44527;47.460;19.016;2023-10-09T04:14:39;101233.66;;;10.39;63.15
58757;BME280;44527;47.460;19.016;2023-10-09T04:18:00;101243.63;;;10.50;63.42
58757;BME280;44527;47.460;19.016;2023-10-09T04:21:03;101236.09;;;10.60;62.50
58757;BME280;44527;47.460;19.016;2023-10-09T04:24:26;101234.00;;;10.66;62.26
58757;BME280;44527;47.460;19.016;2023-10-09T04:27:29;101229.91;;;10.61;62.15
58757;BME280;44527;47.460;19.016;2023-10-09T04:30:39;101221.81;;;10.65;61.71
58757;BME280;44527;47.460;19.016;2023-10-09T04:33:43;101217.94;;;10.55;61.32
58757;BME280;44527;47.460;19.016;2023-10-09T04:36:57;101218.97;;;10.52;61.00
58757;BME280;44527;47.460;19.016;2023-10-09T04:40:04;101207.09;;;10.45;60.22
58757;BME280;44527;47.460;19.016;2023-10-09T04:43:15;101204.75;;;10.56;59.37
58757;BME280;44527;47.460;19.016;2023-10-09T04:46:25;101202.66;;;10.63;58.42
58757;BME280;44527;47.460;19.016;2023-10-09T04:49:29;101208.69;;;10.65;57.98
58757;BME280;44527;47.460;19.016;2023-10-09T04:52:37;101197.38;;;10.80;57.46
58757;BME280;44527;47.460;19.016;2023-10-09T04:55:42;101196.59;;;10.78;56.58
58757;BME280;44527;47.460;19.016;2023-10-09T04:59:07;101203.88;;;10.73;56.81
58757;BME280;44527;47.460;19.016;2023-10-09T05:02:11;101194.50;;;10.85;55.29
58757;BME280;44527;47.460;19.016;2023-10-09T05:05:25;101184.75;;;10.71;55.66
58757;BME280;44527;47.460;19.016;2023-10-09T05:08:48;101175.50;;;10.80;56.41
58757;BME280;44527;47.460;19.016;2023-10-09T05:12:13;101160.19;;;10.88;55.31
58757;BME280;44527;47.460;19.016;2023-10-09T05:15:37;101167.50;;;10.99;54.97
58757;BME280;44527;47.460;19.016;2023-10-09T05:19:08;101181.88;;;10.92;54.78
58757;BME280;44527;47.460;19.016;2023-10-09T05:23:31;101179.91;;;10.95;54.19
58757;BME280;44527;47.460;19.016;2023-10-09T05:27:24;101172.97;;;10.94;54.62
58757;BME280;44527;47.460;19.016;2023-10-09T05:30:52;101172.75;;;10.99;54.91
58757;BME280;44527;47.460;19.016;2023-10-09T05:34:14;101167.31;;;11.02;53.11
58757;BME280;44527;47.460;19.016;2023-10-09T05:37:23;101156.28;;;10.95;54.01
58757;BME280;44527;47.460;19.016;2023-10-09T05:40:37;101182.31;;;11.00;53.94
58757;BME280;44527;47.460;19.016;2023-10-09T05:43:41;101179.69;;;11.00;53.84
58757;BME280;44527;47.460;19.016;2023-10-09T05:47:03;101186.03;;;10.96;53.99
58757;BME280;44527;47.460;19.016;2023-10-09T05:50:29;101206.91;;;10.99;53.40
58757;BME280;44527;47.460;19.016;2023-10-09T05:53:32;101214.50;;;11.03;53.16
58757;BME280;44527;47.460;19.016;2023-10-09T05:56:49;101202.31;;;11.18;52.17
58757;BME280;44527;47.460;19.016;2023-10-09T06:00:10;101178.34;;;11.24;53.14
58757;BME280;44527;47.460;19.016;2023-10-09T06:03:32;101178.59;;;11.36;53.55
58757;BME280;44527;47.460;19.016;2023-10-09T06:07:05;101173.94;;;11.25;53.09
58757;BME280;44527;47.460;19.016;2023-10-09T06:10:16;101168.09;;;11.36;53.44
58757;BME280;44527;47.460;19.016;2023-10-09T06:13:40;101171.22;;;11.42;54.19
58757;BME280;44527;47.460;19.016;2023-10-09T06:16:50;101155.25;;;11.45;54.63
58757;BME280;44527;47.460;19.016;2023-10-09T06:20:00;101151.44;;;11.51;53.55
58757;BME280;44527;47.460;19.016;2023-10-09T06:23:27;101148.41;;;11.27;53.24
58757;BME280;44527;47.460;19.016;2023-10-09T06:26:57;101146.97;;;11.21;54.07
58757;BME280;44527;47.460;19.016;2023-10-09T06:30:04;101142.88;;;11.32;53.97
58757;BME280;44527;47.460;19.016;2023-10-09T06:33:16;101139.06;;;11.37;53.46
58757;BME280;44527;47.460;19.016;2023-10-09T06:36:42;101143.94;;;11.59;52.97
58757;BME280;44527;47.460;19.016;2023-10-09T06:39:56;101149.88;;;11.63;52.65
58757;BME280;44527;47.460;19.016;2023-10-09T06:42:59;101146.72;;;11.72;51.68
58757;BME280;44527;47.460;19.016;2023-10-09T06:46:15;101143.22;;;11.57;49.19
58757;BME280;44527;47.460;19.016;2023-10-09T06:49:27;101152.72;;;11.44;48.95
58757;BME280;44527;47.460;19.016;2023-10-09T06:52:37;101156.34;;;11.57;50.22
58757;BME280;44527;47.460;19.016;2023-10-09T06:55:59;101152.25;;;11.67;50.80
58757;BME280;44527;47.460;19.016;2023-10-09T06:59:20;101142.03;;;11.77;48.16
58757;BME280;44527;47.460;19.016;2023-10-09T07:02:23;101138.75;;;11.73;49.08
58757;BME280;44527;47.460;19.016;2023-10-09T07:05:28;101131.81;;;11.57;48.08
58757;BME280;44527;47.460;19.016;2023-10-09T07:08:55;101125.00;;;11.68;48.52
58757;BME280;44527;47.460;19.016;2023-10-09T07:12:07;101124.00;;;11.71;47.58
58757;BME280;44527;47.460;19.016;2023-10-09T07:15:16;101117.12;;;11.68;47.98
58757;BME280;44527;47.460;19.016;2023-10-09T07:18:37;101120.63;;;11.83;47.81
58757;BME280;44527;47.460;19.016;2023-10-09T07:21:52;101121.91;;;11.92;46.52
58757;BME280;44527;47.460;19.016;2023-10-09T07:24:57;101117.59;;;12.05;46.80
58757;BME280;44527;47.460;19.016;2023-10-09T07:28:25;101116.41;;;12.11;44.90
58757;BME280;44527;47.460;19.016;2023-10-09T07:32:43;101105.09;;;12.09;45.70
58757;BME280;44527;47.460;19.016;2023-10-09T07:35:53;101083.88;;;12.26;45.21
58757;BME280;44527;47.460;19.016;2023-10-09T07:38:59;101054.66;;;12.31;44.41
58757;BME280;44527;47.460;19.016;2023-10-09T07:42:06;101036.69;;;12.23;44.73
58757;BME280;44527;47.460;19.016;2023-10-09T07:45:22;101035.16;;;12.48;43.68
58757;BME280;44527;47.460;19.016;2023-10-09T07:48:25;101031.38;;;12.52;42.15
58757;BME280;44527;47.460;19.016;2023-10-09T07:51:41;101025.34;;;12.23;42.80
58757;BME280;44527;47.460;19.016;2023-10-09T07:54:54;101006.72;;;12.67;43.44
58757;BME280;44527;47.460;19.016;2023-10-09T07:58:22;101009.38;;;13.34;42.36
58757;BME280;44527;47.460;19.016;2023-10-09T08:01:51;101009.44;;;13.60;41.23
58757;BME280;44527;47.460;19.016;2023-10-09T08:05:11;101023.81;;;13.68;41.19
58757;BME280;44527;47.460;19.016;2023-10-09T08:08:25;101016.19;;;13.89;39.77
58757;BME280;44527;47.460;19.016;2023-10-09T08:11:48;101013.47;;;13.78;41.03
58757;BME280;44527;47.460;19.016;2023-10-09T08:15:17;101027.97;;;13.45;40.76
58757;BME280;44527;47.460;19.016;2023-10-09T08:18:28;101005.19;;;13.31;40.18
58757;BME280;44527;47.460;19.016;2023-10-09T08:21:31;101000.44;;;13.37;40.92
58757;BME280;44527;47.460;19.016;2023-10-09T08:25:02;100998.34;;;13.54;40.94
58757;BME280;44527;47.460;19.016;2023-10-09T08:28:05;100989.09;;;13.74;39.72
58757;BME280;44527;47.460;19.016;2023-10-09T08:31:18;100994.03;;;13.53;39.40
58757;BME280;44527;47.460;19.016;2023-10-09T08:34:35;100981.47;;;13.44;39.92
58757;BME280;44527;47.460;19.016;2023-10-09T08:38:02;100970.81;;;13.59;39.12
58757;BME280;44527;47.460;19.016;2023-10-09T08:41:12;100965.84;;;13.67;39.08
58757;BME280;44527;47.460;19.016;2023-10-09T08:44:23;100964.69;;;13.96;38.78
58757;BME280;44527;47.460;19.016;2023-10-09T08:47:27;100968.72;;;14.26;39.01
58757;BME280;44527;47.460;19.016;2023-10-09T08:50:54;100972.00;;;14.17;37.16
58757;BME280;44527;47.460;19.016;2023-10-09T08:53:58;100956.72;;;14.09;37.99
58757;BME280;44527;47.460;19.016;2023-10-09T08:57:02;100952.47;;;14.19;38.26
58757;BME280;44527;47.460;19.016;2023-10-09T09:00:04;100956.97;;;13.93;37.35
58757;BME280;44527;47.460;19.016;2023-10-09T09:03:16;100954.16;;;13.45;38.10
58757;BME280;44527;47.460;19.016;2023-10-09T09:06:19;100953.84;;;13.63;37.80
58757;BME280;44527;47.460;19.016;2023-10-09T09:09:25;100953.62;;;13.66;38.81
58757;BME280;44527;47.460;19.016;2023-10-09T09:12:31;100941.56;;;13.87;37.35
58757;BME280;44527;47.460;19.016;2023-10-09T09:15:48;100915.56;;;14.07;37.33
58757;BME280;44527;47.460;19.016;2023-10-09T09:18:56;100923.97;;;14.24;37.77
58757;BME280;44527;47.460;19.016;2023-10-09T09:22:11;100930.94;;;14.13;36.97
58757;BME280;44527;47.460;19.016;2023-10-09T09:25:14;100914.31;;;13.99;38.02
58757;BME280;44527;47.460;19.016;2023-10-09T09:28:27;100924.13;;;14.34;38.43
58757;BME280;44527;47.460;19.016;2023-10-09T09:31:36;100925.13;;;14.57;37.33
58757;BME280;44527;47.460;19.016;2023-10-09T09:37:53;100907.47;;;14.82;37.09
58757;BME280;44527;47.460;19.016;2023-10-09T09:40:57;100916.25;;;14.93;36.38
58757;BME280;44527;47.460;19.016;2023-10-09T09:44:10;100914.94;;;14.99;36.51
58757;BME280;44527;47.460;19.016;2023-10-09T09:47:17;100919.19;;;14.78;36.33
58757;BME280;44527;47.460;19.016;2023-10-09T09:50:28;100908.00;;;14.50;36.73
58757;BME280;44527;47.460;19.016;2023-10-09T09:53:32;100898.00;;;14.42;37.89
58757;BME280;44527;47.460;19.016;2023-10-09T09:56:39;100903.97;;;14.33;37.02
58757;BME280;44527;47.460;19.016;2023-10-09T09:59:44;100895.47;;;14.41;36.67
58757;BME280;44527;47.460;19.016;2023-10-09T10:02:56;100899.16;;;14.38;36.35
58757;BME280;44527;47.460;19.016;2023-10-09T10:06:04;100901.47;;;14.56;37.26
58757;BME280;44527;47.460;19.016;2023-10-09T10:09:36;100893.28;;;14.83;36.83
58757;BME280;44527;47.460;19.016;2023-10-09T10:16:05;100845.28;;;15.00;36.59
58757;BME280;44527;47.460;19.016;2023-10-09T10:19:21;100829.06;;;15.38;36.53
58757;BME280;44527;47.460;19.016;2023-10-09T10:22:27;100812.69;;;15.90;35.98
58757;BME280;44527;47.460;19.016;2023-10-09T10:25:35;100779.09;;;16.01;35.13
58757;BME280;44527;47.460;19.016;2023-10-09T10:29:21;100797.44;;;15.59;36.05
58757;BME280;44527;47.460;19.016;2023-10-09T10:35:56;100771.50;;;15.20;36.44
58757;BME280;44527;47.460;19.016;2023-10-09T10:39:06;100757.09;;;15.01;36.22
58757;BME280;44527;47.460;19.016;2023-10-09T10:42:31;100749.75;;;14.82;37.30
58757;BME280;44527;47.460;19.016;2023-10-09T10:45:38;100757.44;;;14.97;36.70
58757;BME280;44527;47.460;19.016;2023-10-09T10:48:51;100747.56;;;14.87;37.69
58757;BME280;44527;47.460;19.016;2023-10-09T10:52:03;100736.03;;;15.00;38.56
58757;BME280;44527;47.460;19.016;2023-10-09T10:55:24;100721.16;;;14.99;38.36
58757;BME280;44527;47.460;19.016;2023-10-09T11:18:40;100666.97;;;16.12;36.80
58757;BME280;44527;47.460;19.016;2023-10-09T11:21:50;100701.81;;;16.28;35.76
58757;BME280;44527;47.460;19.016;2023-10-09T11:25:06;100753.00;;;16.50;35.19
58757;BME280;44527;47.460;19.016;2023-10-09T11:31:32;100694.47;;;16.00;36.02
58757;BME280;44527;47.460;19.016;2023-10-09T11:34:36;100679.84;;;16.17;35.65
58757;BME280;44527;47.460;19.016;2023-10-09T11:37:43;100704.78;;;16.35;35.59
58757;BME280;44527;47.460;19.016;2023-10-09T11:40:55;100717.81;;;16.48;35.38
58757;BME280;44527;47.460;19.016;2023-10-09T11:55:28;100742.16;;;17.64;33.61
58757;BME280;44527;47.460;19.016;2023-10-09T11:58:35;100721.97;;;17.83;34.05
58757;BME280;44527;47.460;19.016;2023-10-09T12:01:46;100699.03;;;18.01;34.07
58757;BME280;44527;47.460;19.016;2023-10-09T12:04:58;100692.59;;;18.13;34.26
58757;BME280;44527;47.460;19.016;2023-10-09T12:08:03;100661.31;;;17.98;34.81
58757;BME280;44527;47.460;19.016;2023-10-09T12:11:11;100664.19;;;17.65;34.23
58757;BME280;44527;47.460;19.016;2023-10-09T12:14:14;100657.06;;;17.56;35.76
58757;BME280;44527;47.460;19.016;2023-10-09T12:17:17;100660.69;;;17.36;39.44
58757;BME280;44527;47.460;19.016;2023-10-09T12:20:20;100645.28;;;17.10;40.80
58757;BME280;44527;47.460;19.016;2023-10-09T12:23:35;100637.56;;;16.67;41.72
58757;BME280;44527;47.460;19.016;2023-10-09T12:26:40;100623.69;;;16.74;43.47
58757;BME280;44527;47.460;19.016;2023-10-09T12:29:46;100621.62;;;16.78;44.17
58757;BME280;44527;47.460;19.016;2023-10-09T12:32:55;100626.50;;;16.83;45.23
58757;BME280;44527;47.460;19.016;2023-10-09T12:36:00;100620.78;;;16.77;47.78
58757;BME280;44527;47.460;19.016;2023-10-09T12:39:03;100615.84;;;16.73;51.82
58757;BME280;44527;47.460;19.016;2023-10-09T12:42:08;100611.75;;;16.59;50.30
58757;BME280;44527;47.460;19.016;2023-10-09T12:45:11;100617.09;;;16.69;49.64
58757;BME280;44527;47.460;19.016;2023-10-09T12:48:16;100605.03;;;16.86;50.06
58757;BME280;44527;47.460;19.016;2023-10-09T12:51:18;100608.72;;;16.73;51.24
58757;BME280;44527;47.460;19.016;2023-10-09T12:54:24;100618.28;;;16.86;54.04
58757;BME280;44527;47.460;19.016;2023-10-09T12:57:29;100631.41;;;16.87;49.05
58757;BME280;44527;47.460;19.016;2023-10-09T13:00:36;100622.63;;;16.87;53.05
58757;BME280;44527;47.460;19.016;2023-10-09T13:03:46;100611.03;;;16.78;53.58
58757;BME280;44527;47.460;19.016;2023-10-09T13:06:53;100607.03;;;16.63;53.48
58757;BME280;44527;47.460;19.016;2023-10-09T13:09:56;100606.03;;;16.64;50.51
58757;BME280;44527;47.460;19.016;2023-10-09T13:13:11;100612.09;;;16.45;51.69
58757;BME280;44527;47.460;19.016;2023-10-09T13:19:29;100612.34;;;16.32;59.25
58757;BME280;44527;47.460;19.016;2023-10-09T13:22:44;100601.81;;;16.21;55.86
58757;BME280;44527;47.460;19.016;2023-10-09T13:25:51;100592.84;;;16.12;55.83
58757;BME280;44527;47.460;19.016;2023-10-09T13:29:33;100584.84;;;16.02;56.53
58757;BME280;44527;47.460;19.016;2023-10-09T13:32:36;100586.28;;;15.85;60.39
58757;BME280;44527;47.460;19.016;2023-10-09T13:35:39;100586.03;;;15.68;61.61
58757;BME280;44527;47.460;19.016;2023-10-09T13:38:51;100586.50;;;15.61;62.01
58757;BME280;44527;47.460;19.016;2023-10-09T13:41:58;100581.78;;;15.33;66.94
58757;BME280;44527;47.460;19.016;2023-10-09T13:45:03;100597.84;;;15.09;67.13
58757;BME280;44527;47.460;19.016;2023-10-09T13:48:18;100598.16;;;14.94;68.03
58757;BME280;44527;47.460;19.016;2023-10-09T13:51:22;100595.16;;;14.88;68.96
58757;BME280;44527;47.460;19.016;2023-10-09T13:54:27;100590.72;;;14.77;77.99
58757;BME280;44527;47.460;19.016;2023-10-09T13:57:37;100590.84;;;14.64;77.06
58757;BME280;44527;47.460;19.016;2023-10-09T14:00:39;100589.03;;;14.65;83.41
58757;BME280;44527;47.460;19.016;2023-10-09T14:03:47;100580.88;;;14.57;85.12
58757;BME280;44527;47.460;19.016;2023-10-09T14:06:52;100574.75;;;14.56;91.03
58757;BME280;44527;47.460;19.016;2023-10-09T14:10:00;100559.00;;;14.43;92.79
58757;BME280;44527;47.460;19.016;2023-10-09T14:13:19;100545.09;;;14.41;89.91
58757;BME280;44527;47.460;19.016;2023-10-09T14:16:28;100536.34;;;14.18;92.54
58757;BME280;44527;47.460;19.016;2023-10-09T14:19:31;100547.38;;;14.12;98.57
58757;BME280;44527;47.460;19.016;2023-10-09T14:22:36;100547.50;;;13.99;96.47
58757;BME280;44527;47.460;19.016;2023-10-09T14:25:40;100543.03;;;13.89;100.00
58757;BME280;44527;47.460;19.016;2023-10-09T14:28:45;100536.41;;;13.83;100.00
58757;BME280;44527;47.460;19.016;2023-10-09T14:31:48;100534.25;;;13.77;100.00
58757;BME280;44527;47.460;19.016;2023-10-09T14:35:03;100542.78;;;13.81;100.00
58757;BME280;44527;47.460;19.016;2023-10-09T14:38:15;100547.19;;;13.80;100.00
58757;BME280;44527;47.460;19.016;2023-10-09T14:41:19;100546.13;;;13.71;100.00
58757;BME280;44527;47.460;19.016;2023-10-09T14:44:25;100561.69;;;13.63;100.00
58757;BME280;44527;47.460;19.016;2023-10-09T14:47:31;100553.62;;;13.65;100.00
58757;BME280;44527;47.460;19.016;2023-10-09T14:50:34;100557.16;;;13.65;100.00
58757;BME280;44527;47.460;19.016;2023-10-09T14:53:41;100557.72;;;13.57;100.00
58757;BME280;44527;47.460;19.016;2023-10-09T14:56:44;100557.94;;;13.54;100.00
58757;BME280;44527;47.460;19.016;2023-10-09T14:59:48;100551.69;;;13.55;100.00
58757;BME280;44527;47.460;19.016;2023-10-09T15:02:52;100548.44;;;13.52;100.00
58757;BME280;44527;47.460;19.016;2023-10-09T15:05:58;100538.63;;;13.54;100.00
58757;BME280;44527;47.460;19.016;2023-10-09T15:09:01;100531.28;;;13.46;100.00
58757;BME280;44527;47.460;19.016;2023-10-09T15:12:11;100539.06;;;13.37;100.00
58757;BME280;44527;47.460;19.016;2023-10-09T15:15:14;100526.72;;;13.37;100.00
58757;BME280;44527;47.460;19.016;2023-10-09T15:18:18;100517.88;;;13.49;100.00
58757;BME280;44527;47.460;19.016;2023-10-09T15:21:24;100513.06;;;13.43;100.00
58757;BME280;44527;47.460;19.016;2023-10-09T15:24:29;100521.72;;;13.21;100.00
58757;BME280;44527;47.460;19.016;2023-10-09T15:27:32;100516.81;;;13.17;100.00
58757;BME280;44527;47.460;19.016;2023-10-09T15:30:35;100517.84;;;13.14;100.00
58757;BME280;44527;47.460;19.016;2023-10-09T15:33:41;100521.34;;;13.15;100.00
58757;BME280;44527;47.460;19.016;2023-10-09T15:36:45;100523.22;;;13.13;100.00
58757;BME280;44527;47.460;19.016;2023-10-09T15:39:49;100524.81;;;13.15;100.00
58757;BME280;44527;47.460;19.016;2023-10-09T15:42:52;100519.22;;;13.20;100.00
58757;BME280;44527;47.460;19.016;2023-10-09T15:45:59;100503.81;;;13.26;100.00
58757;BME280;44527;47.460;19.016;2023-10-09T15:49:02;100507.69;;;13.21;100.00
58757;BME280;44527;47.460;19.016;2023-10-09T15:52:04;100500.75;;;13.20;100.00
58757;BME280;44527;47.460;19.016;2023-10-09T15:55:10;100509.22;;;13.12;100.00
58757;BME280;44527;47.460;19.016;2023-10-09T15:58:15;100507.19;;;13.16;100.00
58757;BME280;44527;47.460;19.016;2023-10-09T16:01:19;100502.16;;;13.13;100.00
58757;BME280;44527;47.460;19.016;2023-10-09T16:04:22;100504.69;;;13.14;100.00
58757;BME280;44527;47.460;19.016;2023-10-09T16:07:24;100506.72;;;13.10;100.00
58757;BME280;44527;47.460;19.016;2023-10-09T16:10:31;100494.59;;;13.08;100.00
58757;BME280;44527;47.460;19.016;2023-10-09T16:13:34;100491.59;;;13.01;100.00
58757;BME280;44527;47.460;19.016;2023-10-09T16:16:37;100505.88;;;12.86;100.00
58757;BME280;44527;47.460;19.016;2023-10-09T16:19:47;100514.00;;;12.83;100.00
58757;BME280;44527;47.460;19.016;2023-10-09T16:22:50;100501.06;;;12.80;100.00
58757;BME280;44527;47.460;19.016;2023-10-09T16:25:53;100515.37;;;12.76;100.00
58757;BME280;44527;47.460;19.016;2023-10-09T16:28:55;100509.41;;;12.74;100.00
58757;BME280;44527;47.460;19.016;2023-10-09T16:31:59;100503.78;;;12.78;100.00
58757;BME280;44527;47.460;19.016;2023-10-09T16:35:02;100510.84;;;12.78;100.00
58757;BME280;44527;47.460;19.016;2023-10-09T16:38:05;100529.72;;;12.72;100.00
58757;BME280;44527;47.460;19.016;2023-10-09T16:41:15;100523.81;;;12.81;100.00
58757;BME280;44527;47.460;19.016;2023-10-09T16:44:19;100533.66;;;12.66;100.00
58757;BME280;44527;47.460;19.016;2023-10-09T16:47:22;100526.69;;;12.65;100.00
58757;BME280;44527;47.460;19.016;2023-10-09T16:50:25;100539.44;;;12.71;100.00
58757;BME280;44527;47.460;19.016;2023-10-09T16:53:31;100537.28;;;12.76;100.00
58757;BME280;44527;47.460;19.016;2023-10-09T16:56:38;100547.66;;;12.67;100.00
58757;BME280;44527;47.460;19.016;2023-10-09T16:59:45;100552.31;;;12.50;100.00
58757;BME280;44527;47.460;19.016;2023-10-09T17:02:48;100551.59;;;12.48;100.00
58757;BME280;44527;47.460;19.016;2023-10-09T17:05:51;100550.13;;;12.44;100.00
58757;BME280;44527;47.460;19.016;2023-10-09T17:09:02;100559.81;;;12.44;100.00